Terminal Aerodrome Forecast
Issued by NWS North Platte, NE

Home | Current Version | Previous Version | Text Only | Print | Product List | Glossary On
Versions: 1 2 3 4 5 6 7 8 9 10 11 12 13 14 15 16 17 18 19 20 21 22 23 24 25
000
FTUS43 KLBF 220520
TAFVTN
TAF
KVTN 220520Z 2206/2306 07006KT P6SM SKC WS015/19050KT
     FM221200 21010KT P6SM SKC
     FM221500 26010KT P6SM FEW250
     FM230000 03010KT P6SM FEW100 SCT250
     FM230200 02010KT P6SM BKN100 BKN200 PROB30 2303/2306 6SM -TSRA
      BKN050 BKN100CB=

USA.gov is the U.S. government's official web portal to all federal, state and local government web resources and services.